Estación Meteorológica Peña el Pijo (Robertgarden) [ 01/30/23 14:12:03 CET ]

Fecha Hora Presion(HPa) Temp (°C) Humedad % Rocio (°C) Viento ( m/s) Direccion Lluvia 1Hora(mm) Lluvia 24H(mm) LLuvia Total(mm)
2010-Jan-21 01:01:15 1014.300 2.6 84 0.1         66.30
2010-Jan-21 02:03:14 1013.800 1.9 85 -0.4         66.30
2010-Jan-21 03:01:12 1013.800 1.3 86 -0.8         66.30
2010-Jan-21 04:01:13 1012.900 1.3 87 -0.7         66.30
2010-Jan-21 05:01:13 1012.700 0.9 87 -1.1         66.30
2010-Jan-21 06:01:14 1013.000 1.2 86 -0.9         66.30
2010-Jan-21 07:01:12 1013.300 0.2 85 -2.0         66.30
2010-Jan-21 08:01:13 1013.300 -0.7 86 -2.7         66.30
2010-Jan-21 09:01:14 1013.700 -0.4 87 -2.3         66.30
2010-Jan-21 10:01:12 1013.800 4.0 85 1.7         66.30
2010-Jan-21 11:01:14 1014.200 7.5 65 1.3         66.30
2010-Jan-21 12:01:17 1013.700 10.9 51 1.2         66.30
2010-Jan-21 13:01:14 1013.100 12.3 47 1.2         66.30
2010-Jan-21 14:01:14 1012.400 14.4 42 1.6         66.30
2010-Jan-21 15:01:14 1011.800 15.0 37 0.3         66.30
2010-Jan-21 16:01:18 1012.000 12.9 41 -0.1         66.30
2010-Jan-21 17:01:17 1012.300 11.3 44 -0.6         66.30
2010-Jan-21 18:01:19 1012.600 9.6 52 0.2         66.30
2010-Jan-21 19:01:14 1012.900 7.3 61 0.3         66.30
2010-Jan-21 20:01:11 1013.400 5.4 67 -0.2         66.30
2010-Jan-21 21:01:10 1013.500 4.3 71 -0.5         66.30
2010-Jan-21 22:01:18 1013.500 3.1 75 -0.9         66.30
2010-Jan-21 23:01:16 1013.800 1.0 79 -2.3         66.30

Temperatura Máxima:15°    Temperatura Mínima:
Presión Máxima:1014.300 Hpa    Presión Mínima:1011.800 Hpa


Volver